Terminal Aerodrome Forecast
Issued by NWS

Home | Current Version | Previous Version | Text Only | Print | Product List | Glossary On
Versions: 1 2 3 4 5 6 7 8 9 10 11 12 13 14 15 16 17 18 19 20
000
FTUS46 KSTO 100538
TAFSAC
TAF
KSAC 100538Z 1006/1106 15005KT 3SM BR OVC080
     FM100800 16011KT 2SM -RA BR OVC050
     FM101200 16015G25KT 2SM -RA BR OVC005=

USA.gov is the U.S. government's official web portal to all federal, state and local government web resources and services.